Time;durP1;ratioP1;P1;durP2;ratioP2;P2;SDS_P1;SDS_P2;PMS_P1;PMS_P2;Temp;Humidity;BMP_temperature;BMP_pressure;BME280_temperature;BME280_humidity;BME280_pressure;Samples;Min_cycle;Max_cycle;Signal;HPM_P1;HPM_P2
2022/05/07 00:01:59;;;;;;;17.33;15.30;;;8.80;99.90;;;;;;5088043;28;20465;-63
2022/05/07 00:04:26;;;;;;;17.70;15.30;;;8.80;99.90;;;;;;5086331;28;20447;-64
2022/05/07 00:06:54;;;;;;;17.23;14.80;;;8.80;99.90;;;;;;5088823;28;20442;-61
2022/05/07 00:09:23;;;;;;;15.53;13.87;;;8.90;99.90;;;;;;5089032;28;20446;-63
2022/05/07 00:11:50;;;;;;;14.93;13.50;;;8.80;99.90;;;;;;5088327;28;20489;-63
2022/05/07 00:14:17;;;;;;;17.83;14.53;;;8.70;99.90;;;;;;5088863;28;20438;-63
2022/05/07 00:19:28;;;;;;;16.10;14.40;;;8.70;99.90;;;;;;5086743;28;20453;-62
2022/05/07 00:21:56;;;;;;;19.07;15.37;;;8.70;99.90;;;;;;5087049;28;20462;-62
2022/05/07 00:24:23;;;;;;;16.20;14.50;;;8.60;99.90;;;;;;5088612;28;20441;-64
2022/05/07 00:26:50;;;;;;;20.27;16.70;;;8.60;99.90;;;;;;5088764;28;20493;-64
2022/05/07 00:29:17;;;;;;;17.50;15.40;;;8.60;99.90;;;;;;5088434;28;20441;-63
2022/05/07 00:31:44;;;;;;;20.70;16.57;;;8.60;99.90;;;;;;5089169;28;20481;-64
2022/05/07 00:34:11;;;;;;;16.50;14.80;;;8.50;99.90;;;;;;5082576;28;20446;-65
2022/05/07 00:36:38;;;;;;;18.40;14.80;;;8.50;99.90;;;;;;5088590;28;20838;-65
2022/05/07 00:39:06;;;;;;;16.60;14.80;;;8.40;99.90;;;;;;5088519;28;20453;-65
2022/05/07 00:41:33;;;;;;;16.80;14.70;;;8.40;99.90;;;;;;5087824;28;20466;-64
2022/05/07 00:43:59;;;;;;;20.60;16.70;;;8.30;99.90;;;;;;5088617;28;20457;-64
2022/05/07 00:46:27;;;;;;;22.13;16.80;;;8.40;99.90;;;;;;5088416;28;20929;-64
2022/05/07 00:48:56;;;;;;;21.73;16.60;;;8.30;99.90;;;;;;5088188;28;20529;-66
2022/05/07 00:51:35;;;;;;;17.43;15.20;;;8.20;99.90;;;;;;5087903;28;20481;-64
2022/05/07 00:54:07;;;;;;;16.57;14.77;;;8.20;99.90;;;;;;5088258;28;20461;-65
2022/05/07 00:56:36;;;;;;;18.43;16.53;;;8.20;99.90;;;;;;5081970;28;20830;-65
2022/05/07 00:59:04;;;;;;;22.13;17.23;;;8.20;99.90;;;;;;5081778;28;20442;-65
2022/05/07 01:01:31;;;;;;;20.20;15.77;;;8.20;99.90;;;;;;5088004;28;20559;-65
2022/05/07 01:03:58;;;;;;;18.30;16.40;;;8.10;99.90;;;;;;5088262;28;20440;-65
2022/05/07 01:06:25;;;;;;;19.33;16.40;;;8.00;99.90;;;;;;5081915;28;20450;-65
2022/05/07 01:08:51;;;;;;;17.50;15.30;;;8.10;99.90;;;;;;5088043;28;20442;-65
2022/05/07 01:11:21;;;;;;;19.77;15.67;;;8.00;99.90;;;;;;5087667;28;20458;-64
2022/05/07 01:13:48;;;;;;;16.93;14.90;;;8.20;99.90;;;;;;5088221;28;20456;-65
2022/05/07 01:16:15;;;;;;;18.43;15.80;;;8.20;99.90;;;;;;5088369;28;20442;-65
2022/05/07 01:18:43;;;;;;;15.63;13.57;;;8.20;99.90;;;;;;5089262;28;20473;-64
2022/05/07 01:21:13;;;;;;;15.30;13.30;;;8.20;99.90;;;;;;5089324;28;20461;-64
2022/05/07 01:23:41;;;;;;;17.63;14.00;;;8.20;99.90;;;;;;5089857;28;20438;-63
2022/05/07 01:26:09;;;;;;;16.13;14.43;;;8.20;99.90;;;;;;5089154;28;20982;-62
2022/05/07 01:28:36;;;;;;;19.10;15.00;;;8.10;99.90;;;;;;5089492;28;21031;-63
2022/05/07 01:31:03;;;;;;;17.00;15.20;;;8.00;99.90;;;;;;5088843;28;20536;-64
2022/05/07 01:33:33;;;;;;;17.83;15.00;;;8.10;99.90;;;;;;5085030;28;21098;-63
2022/05/07 01:36:01;;;;;;;16.17;14.50;;;8.10;99.90;;;;;;5089440;28;20876;-63
2022/05/07 01:38:29;;;;;;;15.70;13.77;;;8.00;99.90;;;;;;5089423;28;20482;-64
2022/05/07 01:40:56;;;;;;;16.77;15.07;;;8.00;99.90;;;;;;5088974;28;20857;-63
2022/05/07 01:43:26;;;;;;;15.87;14.03;;;8.10;99.90;;;;;;5088991;28;20452;-62
2022/05/07 01:45:53;;;;;;;15.80;14.00;;;8.00;99.90;;;;;;5089097;28;20442;-63
2022/05/07 01:48:19;;;;;;;16.67;14.97;;;7.90;99.90;;;;;;5088877;28;20442;-61
2022/05/07 01:50:46;;;;;;;16.07;13.87;;;7.80;99.90;;;;;;5088798;28;20527;-62
2022/05/07 01:53:14;;;;;;;17.90;14.20;;;7.70;99.90;;;;;;5088997;28;20493;-63
2022/05/07 01:55:43;;;;;;;16.60;14.80;;;7.70;99.90;;;;;;5088857;28;20451;-62
2022/05/07 01:58:11;;;;;;;14.33;12.83;;;7.60;99.90;;;;;;5089156;28;20442;-63
2022/05/07 02:00:40;;;;;;;15.33;13.73;;;7.70;99.90;;;;;;5090660;28;20849;-63
2022/05/07 02:03:07;;;;;;;17.30;13.47;;;7.70;99.90;;;;;;5090542;28;20438;-62
2022/05/07 02:05:35;;;;;;;17.23;13.23;;;7.60;99.90;;;;;;5082416;28;20450;-64
2022/05/07 02:08:03;;;;;;;15.10;12.90;;;7.80;99.90;;;;;;5090516;28;20442;-62
2022/05/07 02:10:30;;;;;;;14.63;13.23;;;7.80;99.90;;;;;;5092211;28;20441;-62
2022/05/07 02:13:01;;;;;;;18.00;15.30;;;7.70;99.90;;;;;;5092077;28;21057;-63
2022/05/07 02:15:28;;;;;;;16.20;13.70;;;7.70;99.90;;;;;;5092141;28;20800;-63
2022/05/07 02:17:56;;;;;;;16.30;13.70;;;7.60;99.90;;;;;;5092401;28;20533;-63
2022/05/07 02:20:23;;;;;;;14.63;12.90;;;7.60;99.90;;;;;;5091874;28;20465;-63
2022/05/07 02:22:53;;;;;;;16.03;14.23;;;7.60;99.90;;;;;;5092127;28;20462;-61
2022/05/07 02:25:20;;;;;;;17.27;12.87;;;7.60;99.90;;;;;;5092011;28;20499;-63
2022/05/07 02:27:47;;;;;;;17.33;13.20;;;7.50;99.90;;;;;;5091873;28;20453;-64
2022/05/07 02:30:16;;;;;;;14.30;12.57;;;7.50;99.90;;;;;;5091505;28;20944;-63
2022/05/07 02:32:42;;;;;;;14.20;12.67;;;7.40;99.90;;;;;;5091434;28;21001;-63
2022/05/07 02:35:09;;;;;;;14.60;13.10;;;7.40;99.90;;;;;;5091850;28;20438;-61
2022/05/07 02:37:37;;;;;;;16.13;13.60;;;7.30;99.90;;;;;;5091894;28;20453;-61
2022/05/07 02:40:04;;;;;;;12.70;11.13;;;7.20;99.90;;;;;;5091456;28;20488;-64
2022/05/07 02:42:36;;;;;;;11.93;10.67;;;7.40;99.90;;;;;;5091292;28;20976;-64
2022/05/07 02:45:06;;;;;;;13.43;12.03;;;7.30;99.90;;;;;;5091834;28;20438;-65
2022/05/07 02:47:34;;;;;;;13.40;11.90;;;7.30;99.90;;;;;;5091596;28;20970;-64
2022/05/07 02:50:01;;;;;;;13.83;12.30;;;7.20;99.90;;;;;;5091376;28;20454;-64
2022/05/07 02:52:28;;;;;;;17.60;14.33;;;7.20;99.90;;;;;;5091529;28;20493;-63
2022/05/07 02:54:55;;;;;;;14.20;12.70;;;7.10;99.90;;;;;;5091527;28;20449;-64
2022/05/07 02:57:22;;;;;;;14.97;13.50;;;7.10;99.90;;;;;;5091706;28;20507;-64
2022/05/07 02:59:48;;;;;;;15.03;12.83;;;7.10;99.90;;;;;;5091466;28;20439;-64
2022/05/07 03:02:15;;;;;;;14.40;12.90;;;7.10;99.90;;;;;;5091633;28;20466;-63
2022/05/07 03:04:43;;;;;;;16.47;14.70;;;7.10;99.90;;;;;;5091457;28;21016;-62
2022/05/07 03:07:10;;;;;;;17.37;13.63;;;7.20;99.90;;;;;;5091426;28;21242;-64
2022/05/07 03:09:37;;;;;;;13.47;12.13;;;7.20;99.90;;;;;;5091312;28;20457;-63
2022/05/07 03:12:04;;;;;;;13.70;12.20;;;7.20;99.90;;;;;;5091019;28;20481;-63
2022/05/07 03:14:32;;;;;;;15.00;13.40;;;7.20;99.90;;;;;;5091295;28;20977;-64
2022/05/07 03:16:59;;;;;;;16.10;13.60;;;7.20;99.90;;;;;;5091438;28;20437;-64
2022/05/07 03:19:26;;;;;;;15.97;14.30;;;7.20;99.90;;;;;;5091322;28;20438;-64
2022/05/07 03:21:54;;;;;;;16.30;13.27;;;7.20;99.90;;;;;;5090843;28;20462;-65
2022/05/07 03:24:21;;;;;;;16.10;14.40;;;7.20;99.90;;;;;;5091390;28;20498;-63
2022/05/07 03:26:48;;;;;;;16.47;14.10;;;7.20;99.90;;;;;;5091302;28;20496;-65
2022/05/07 03:29:15;;;;;;;21.53;15.30;;;7.20;99.90;;;;;;5091333;28;20445;-64
2022/05/07 03:31:42;;;;;;;21.37;14.50;;;7.20;99.90;;;;;;5090740;28;20466;-64
2022/05/07 03:34:11;;;;;;;19.40;14.30;;;7.10;99.90;;;;;;5091055;28;20513;-64
2022/05/07 03:36:38;;;;;;;17.07;13.80;;;7.00;99.90;;;;;;5090810;28;20435;-63
2022/05/07 03:39:07;;;;;;;18.07;14.90;;;7.10;99.90;;;;;;5091230;28;20470;-65
2022/05/07 03:41:33;;;;;;;15.43;13.80;;;7.00;99.90;;;;;;5090559;28;20470;-64
2022/05/07 03:44:00;;;;;;;18.40;14.70;;;7.20;99.90;;;;;;5091191;28;20427;-62
2022/05/07 03:46:27;;;;;;;15.00;12.80;;;7.20;99.90;;;;;;5090055;28;20529;-64
2022/05/07 03:48:54;;;;;;;15.00;13.37;;;7.10;99.90;;;;;;5091036;28;20444;-64
2022/05/07 03:51:20;;;;;;;14.87;13.27;;;7.10;99.90;;;;;;5090402;28;20476;-64
2022/05/07 03:53:46;;;;;;;17.03;14.43;;;7.00;99.90;;;;;;5090603;28;20474;-64
2022/05/07 03:56:15;;;;;;;15.73;14.13;;;7.00;99.90;;;;;;5090673;28;20445;-65
2022/05/07 03:58:42;;;;;;;15.33;13.83;;;7.00;99.90;;;;;;5090592;28;20257;-63
2022/05/07 04:01:09;;;;;;;14.20;12.10;;;7.00;99.90;;;;;;5090090;28;20466;-65
2022/05/07 04:03:36;;;;;;;17.00;14.53;;;6.90;99.90;;;;;;5090836;28;20778;-64
2022/05/07 04:06:04;;;;;;;19.00;12.70;;;6.90;99.90;;;;;;5090576;28;20438;-63
2022/05/07 04:08:31;;;;;;;13.93;12.43;;;6.90;99.90;;;;;;5090909;28;20450;-64
2022/05/07 04:10:58;;;;;;;16.90;13.53;;;6.80;99.90;;;;;;5090295;28;20466;-64
2022/05/07 04:13:26;;;;;;;14.83;12.50;;;6.80;99.90;;;;;;5090411;28;20470;-63
2022/05/07 04:15:53;;;;;;;18.27;16.10;;;6.80;99.90;;;;;;5090645;28;20439;-64
2022/05/07 04:18:19;;;;;;;16.53;13.47;;;6.80;99.90;;;;;;5090563;28;20449;-63
2022/05/07 04:20:46;;;;;;;14.90;13.33;;;6.90;99.90;;;;;;5090152;28;20458;-64
2022/05/07 04:23:13;;;;;;;18.63;14.30;;;7.00;99.90;;;;;;5089839;28;20434;-63
2022/05/07 04:25:41;;;;;;;16.77;15.07;;;7.00;99.90;;;;;;5090323;28;20930;-63
2022/05/07 04:28:08;;;;;;;16.73;13.93;;;7.00;99.90;;;;;;5089959;28;20983;-63
2022/05/07 04:30:37;;;;;;;17.20;14.40;;;7.00;99.90;;;;;;5089812;28;20438;-63
2022/05/07 04:33:04;;;;;;;15.13;13.57;;;7.00;99.90;;;;;;5090030;28;20482;-63
2022/05/07 04:35:31;;;;;;;18.13;15.40;;;7.00;99.90;;;;;;5090171;28;20550;-63
2022/05/07 04:37:57;;;;;;;23.10;15.17;;;7.00;99.90;;;;;;5090017;28;20430;-64
2022/05/07 04:40:24;;;;;;;17.70;14.90;;;7.00;99.90;;;;;;5089461;28;20444;-63
2022/05/07 04:42:51;;;;;;;18.30;15.77;;;6.90;99.90;;;;;;5089782;28;20552;-63
2022/05/07 04:45:18;;;;;;;18.60;14.33;;;7.00;99.90;;;;;;5089958;28;20444;-62
2022/05/07 04:47:46;;;;;;;21.00;15.07;;;7.00;99.90;;;;;;5089807;28;20446;-62
2022/05/07 04:50:13;;;;;;;17.57;14.67;;;7.00;99.90;;;;;;5089537;28;20438;-61
2022/05/07 04:52:40;;;;;;;20.30;14.60;;;7.10;99.90;;;;;;5089887;28;20485;-62
2022/05/07 04:55:08;;;;;;;17.80;14.57;;;7.30;99.90;;;;;;5089739;28;20434;-64
2022/05/07 04:57:36;;;;;;;15.10;13.33;;;7.50;99.90;;;;;;5089979;28;20449;-64
2022/05/07 05:00:04;;;;;;;16.27;14.13;;;7.60;99.90;;;;;;5089351;28;20544;-62
2022/05/07 05:02:31;;;;;;;18.30;14.93;;;7.70;99.90;;;;;;5089565;28;20476;-63
2022/05/07 05:04:59;;;;;;;16.40;12.67;;;7.70;99.90;;;;;;5089791;28;20450;-64
2022/05/07 05:07:26;;;;;;;13.20;11.80;;;7.80;99.90;;;;;;5089650;28;21008;-64
2022/05/07 05:09:52;;;;;;;15.07;13.50;;;7.90;99.90;;;;;;5089297;28;20438;-63
2022/05/07 05:12:19;;;;;;;16.87;14.63;;;7.80;99.90;;;;;;5089571;28;20462;-64
2022/05/07 05:15:03;;;;;;;15.20;13.70;;;7.80;99.90;;;;;;5089651;28;20444;-63
2022/05/07 05:17:30;;;;;;;18.67;15.90;;;7.80;99.90;;;;;;5089601;28;20444;-63
2022/05/07 05:19:58;;;;;;;16.40;14.07;;;8.00;99.90;;;;;;5089363;28;20434;-62
2022/05/07 05:22:25;;;;;;;15.67;14.17;;;8.20;99.90;;;;;;5089368;28;20462;-64
2022/05/07 05:24:52;;;;;;;16.33;14.17;;;8.20;99.90;;;;;;5089867;28;20438;-63
2022/05/07 05:27:19;;;;;;;16.07;14.47;;;8.40;99.90;;;;;;5089607;28;20937;-63
2022/05/07 05:29:45;;;;;;;20.83;18.20;;;8.40;99.90;;;;;;5089615;28;20522;-62
2022/05/07 05:32:17;;;;;;;20.00;17.77;;;8.50;99.90;;;;;;5089662;28;20535;-62
2022/05/07 05:34:45;;;;;;;21.03;16.80;;;8.60;99.90;;;;;;5090492;28;20482;-63
2022/05/07 05:37:13;;;;;;;16.83;15.13;;;8.80;99.90;;;;;;5094675;28;20445;-64
2022/05/07 05:39:40;;;;;;;19.47;17.33;;;8.90;99.90;;;;;;5093620;28;20450;-63
2022/05/07 05:42:08;;;;;;;18.83;16.97;;;9.00;99.90;;;;;;5092954;28;20846;-63
2022/05/07 05:44:37;;;;;;;20.07;17.90;;;9.20;99.90;;;;;;5093129;28;20948;-63
2022/05/07 05:47:04;;;;;;;20.17;16.87;;;9.40;99.90;;;;;;5092919;28;20990;-62
2022/05/07 05:49:31;;;;;;;18.43;16.53;;;9.60;99.90;;;;;;5093308;28;20438;-63
2022/05/07 05:51:58;;;;;;;21.37;16.20;;;9.60;99.90;;;;;;5092751;28;20846;-64
2022/05/07 05:54:26;;;;;;;20.40;16.10;;;9.50;99.90;;;;;;5092980;28;20481;-63
2022/05/07 05:56:53;;;;;;;16.30;14.60;;;9.50;99.90;;;;;;5092834;28;20527;-64
2022/05/07 05:59:20;;;;;;;20.53;17.40;;;9.60;99.90;;;;;;5092836;28;20438;-64
2022/05/07 06:01:47;;;;;;;18.30;16.43;;;9.70;99.90;;;;;;5092420;28;20458;-64
2022/05/07 06:04:14;;;;;;;19.37;17.07;;;9.80;99.90;;;;;;5092902;28;20438;-64
2022/05/07 06:06:41;;;;;;;19.40;17.37;;;9.90;99.90;;;;;;5092789;28;20529;-64
2022/05/07 06:09:08;;;;;;;19.03;17.03;;;10.00;99.90;;;;;;5092825;28;20893;-63
2022/05/07 06:11:36;;;;;;;21.03;18.83;;;10.10;99.90;;;;;;5092395;28;20800;-65
2022/05/07 06:14:03;;;;;;;20.00;18.00;;;10.10;99.90;;;;;;5092681;28;20944;-63
2022/05/07 06:16:30;;;;;;;20.73;18.63;;;10.30;99.90;;;;;;5092402;28;21013;-62
2022/05/07 06:18:57;;;;;;;19.70;17.77;;;10.30;99.90;;;;;;5092672;28;20461;-64
2022/05/07 06:21:24;;;;;;;20.17;18.07;;;10.40;99.90;;;;;;5092100;28;20469;-64
2022/05/07 06:23:51;;;;;;;21.70;19.60;;;10.50;99.90;;;;;;5092463;28;20529;-63
2022/05/07 06:29:03;;;;;;;20.33;18.13;;;10.60;99.90;;;;;;5093651;28;20413;-63
2022/05/07 06:31:30;;;;;;;19.80;17.80;;;10.80;99.90;;;;;;5093752;28;20457;-64
2022/05/07 06:33:58;;;;;;;19.33;17.43;;;10.90;99.90;;;;;;5094266;28;20490;-63
2022/05/07 06:36:24;;;;;;;20.70;18.57;;;11.00;99.90;;;;;;5094577;28;20438;-63
2022/05/07 06:38:51;;;;;;;19.20;17.17;;;11.10;99.90;;;;;;5094508;28;20442;-64
2022/05/07 06:41:18;;;;;;;17.37;15.57;;;11.10;99.90;;;;;;5092148;28;20915;-64
2022/05/07 06:43:45;;;;;;;20.63;18.03;;;11.20;99.90;;;;;;5092581;28;20440;-63
2022/05/07 06:46:13;;;;;;;21.57;19.33;;;11.40;99.90;;;;;;5091698;28;20442;-63
2022/05/07 06:48:41;;;;;;;19.83;17.73;;;11.50;99.90;;;;;;5092205;28;20956;-63
2022/05/07 06:51:08;;;;;;;18.50;16.60;;;11.60;99.90;;;;;;5091557;28;20553;-62
2022/05/07 06:53:35;;;;;;;20.87;17.77;;;11.70;99.90;;;;;;5091777;28;20474;-64
2022/05/07 06:56:01;;;;;;;21.83;19.67;;;11.70;99.90;;;;;;5091659;28;20435;-63
2022/05/07 06:58:30;;;;;;;19.30;17.30;;;11.90;99.90;;;;;;5091664;28;20929;-63
2022/05/07 07:00:58;;;;;;;24.00;18.83;;;12.00;99.90;;;;;;5091219;28;20516;-64
2022/05/07 07:03:26;;;;;;;17.77;16.00;;;12.10;99.90;;;;;;5091538;28;20438;-64
2022/05/07 07:05:54;;;;;;;18.20;16.30;;;12.10;99.90;;;;;;5091152;28;20482;-63
2022/05/07 07:08:21;;;;;;;16.93;15.23;;;12.30;99.90;;;;;;5090398;28;20447;-63
2022/05/07 07:10:48;;;;;;;21.20;17.43;;;12.40;99.90;;;;;;5090994;28;20464;-63
2022/05/07 07:13:16;;;;;;;18.07;16.27;;;12.50;99.90;;;;;;5083488;28;20446;-63
2022/05/07 07:15:44;;;;;;;17.70;15.90;;;12.50;99.90;;;;;;5085765;28;20430;-63
2022/05/07 07:18:12;;;;;;;18.23;15.93;;;12.70;99.90;;;;;;5090897;28;21037;-64
2022/05/07 07:20:42;;;;;;;16.77;15.07;;;12.70;99.90;;;;;;5090765;28;21146;-59
2022/05/07 07:23:11;;;;;;;17.10;15.40;;;12.80;99.90;;;;;;5091147;28;20521;-64
2022/05/07 07:25:39;;;;;;;16.97;15.17;;;13.00;99.90;;;;;;5087958;28;20438;-62
2022/05/07 07:28:06;;;;;;;15.10;13.60;;;13.10;99.90;;;;;;5087595;28;20900;-64
2022/05/07 07:30:33;;;;;;;13.37;11.97;;;13.20;99.90;;;;;;5090487;28;20582;-65
2022/05/07 07:33:00;;;;;;;13.97;12.67;;;13.40;99.90;;;;;;5091024;28;20807;-64
2022/05/07 07:35:27;;;;;;;15.90;14.23;;;13.50;99.90;;;;;;5082788;28;20496;-64
2022/05/07 07:37:56;;;;;;;14.47;13.07;;;13.60;99.90;;;;;;5087815;28;20444;-65
2022/05/07 07:40:23;;;;;;;14.47;13.07;;;13.70;99.90;;;;;;5087778;28;20439;-65
2022/05/07 07:42:50;;;;;;;16.80;13.30;;;13.80;99.90;;;;;;5090722;28;20457;-65
2022/05/07 07:48:03;;;;;;;12.63;11.40;;;14.00;99.90;;;;;;5090214;28;20414;-65
2022/05/07 07:50:31;;;;;;;14.87;13.27;;;14.10;99.90;;;;;;5089924;28;20464;-65
2022/05/07 07:53:01;;;;;;;14.87;12.27;;;14.30;99.90;;;;;;5090694;28;20430;-65
2022/05/07 07:55:28;;;;;;;12.37;11.17;;;14.40;99.90;;;;;;5089049;28;20577;-65
2022/05/07 07:57:56;;;;;;;14.30;12.80;;;14.60;99.90;;;;;;5084387;28;20446;-66
2022/05/07 08:00:24;;;;;;;14.83;13.43;;;14.70;99.90;;;;;;5086941;28;20442;-66
2022/05/07 08:02:53;;;;;;;13.90;12.60;;;14.80;99.90;;;;;;5086622;28;20436;-65
2022/05/07 08:05:24;;;;;;;15.47;12.00;;;14.90;99.90;;;;;;5084896;28;20457;-64
2022/05/07 08:13:22;;;;;;;14.97;12.40;;;15.20;99.90;;;;;;5089158;28;20423;-66
2022/05/07 08:15:49;;;;;;;14.37;12.90;;;15.40;99.90;;;;;;5085343;28;20534;-65
2022/05/07 08:18:16;;;;;;;13.07;11.70;;;15.50;99.90;;;;;;5085206;28;20913;-68
2022/05/07 08:20:44;;;;;;;15.27;12.97;;;15.70;99.90;;;;;;5079464;28;21011;-65
2022/05/07 08:23:11;;;;;;;13.33;11.93;;;15.90;99.90;;;;;;5084453;28;21192;-65
2022/05/07 08:25:39;;;;;;;14.03;12.57;;;16.00;99.90;;;;;;5089239;28;20427;-66
2022/05/07 08:28:07;;;;;;;13.93;12.63;;;16.10;99.90;;;;;;5090090;28;20441;-66
2022/05/07 08:30:36;;;;;;;13.87;12.67;;;16.20;99.90;;;;;;5089282;28;20444;-66
2022/05/07 08:33:04;;;;;;;12.83;11.63;;;16.40;99.90;;;;;;5089886;28;20435;-66
2022/05/07 08:35:31;;;;;;;14.43;12.83;;;16.40;99.90;;;;;;5089746;28;20629;-65
2022/05/07 08:37:58;;;;;;;13.57;12.27;;;16.50;99.90;;;;;;5087097;28;20823;-66
2022/05/07 08:40:27;;;;;;;13.90;12.50;;;16.60;99.90;;;;;;5089478;28;20445;-66
2022/05/07 08:42:55;;;;;;;14.23;12.73;;;16.70;99.90;;;;;;5089649;28;20928;-65
2022/05/07 08:45:22;;;;;;;13.93;12.63;;;16.90;99.90;;;;;;5077176;28;20445;-66
2022/05/07 08:47:53;;;;;;;12.23;11.13;;;17.10;99.90;;;;;;5089679;28;20442;-65
2022/05/07 08:50:21;;;;;;;11.27;10.23;;;17.30;99.90;;;;;;5089138;28;20434;-65
2022/05/07 08:52:49;;;;;;;13.37;11.57;;;17.40;99.90;;;;;;5082685;28;20466;-66
2022/05/07 08:55:18;;;;;;;15.30;13.73;;;17.30;99.90;;;;;;5080202;28;20474;-66
2022/05/07 08:57:47;;;;;;;12.93;11.73;;;17.40;99.90;;;;;;5079647;28;20921;-65
2022/05/07 09:00:17;;;;;;;16.17;10.30;;;17.50;99.90;;;;;;5081402;28;20442;-65
2022/05/07 09:02:48;;;;;;;12.60;11.37;;;17.70;99.90;;;;;;5081343;28;20880;-64
2022/05/07 09:05:18;;;;;;;12.37;11.10;;;17.90;99.90;;;;;;5082981;28;20534;-65
2022/05/07 09:07:53;;;;;;;13.00;11.70;;;18.10;99.90;;;;;;5079594;28;20787;-65
2022/05/07 09:10:20;;;;;;;13.63;10.97;;;18.00;99.90;;;;;;5084213;28;20909;-64
2022/05/07 09:12:47;;;;;;;11.20;10.17;;;18.10;99.90;;;;;;5083894;28;21036;-66
2022/05/07 09:15:15;;;;;;;11.40;10.23;;;18.30;99.90;;;;;;5084275;28;20505;-65
2022/05/07 09:17:47;;;;;;;10.00;9.10;;;18.50;99.90;;;;;;5081910;28;20453;-65
2022/05/07 09:20:16;;;;;;;9.97;8.97;;;18.80;99.90;;;;;;5082337;28;20818;-65
2022/05/07 09:22:51;;;;;;;9.90;8.93;;;18.70;99.90;;;;;;5081751;28;20464;-64
2022/05/07 09:25:24;;;;;;;8.20;7.40;;;18.80;99.90;;;;;;5092201;28;20434;-65
2022/05/07 09:27:54;;;;;;;9.57;8.67;;;18.80;99.90;;;;;;5091685;28;20446;-64
2022/05/07 09:30:27;;;;;;;10.63;9.10;;;18.70;99.90;;;;;;5082803;28;20449;-65
2022/05/07 09:32:55;;;;;;;9.17;8.27;;;18.80;99.90;;;;;;5084589;28;20799;-64
2022/05/07 09:38:12;;;;;;;9.10;8.20;;;19.00;99.90;;;;;;5083747;28;20429;-65
2022/05/07 09:40:41;;;;;;;12.00;7.60;;;19.50;99.90;;;;;;5082007;28;20485;-67
2022/05/07 09:43:09;;;;;;;8.00;7.30;;;20.10;99.90;;;;;;5083801;28;20458;-66
2022/05/07 09:45:39;;;;;;;10.20;8.20;;;20.80;99.90;;;;;;5081887;28;20457;-66
2022/05/07 09:48:07;;;;;;;11.07;9.97;;;21.30;99.90;;;;;;5085409;28;20453;-65
2022/05/07 09:50:44;;;;;;;8.93;8.00;;;21.10;99.90;;;;;;5084628;28;20438;-66
2022/05/07 09:58:42;;;;;;;9.77;8.17;;;21.80;99.00;;;;;;5081869;28;20430;-66
2022/05/07 10:01:24;;;;;;;10.30;8.03;;;23.00;99.00;;;;;;5083251;28;20837;-66
2022/05/07 10:04:02;;;;;;;7.63;6.83;;;23.40;97.30;;;;;;5087670;28;20442;-65
2022/05/07 10:06:41;;;;;;;6.80;6.10;;;23.40;94.60;;;;;;5089845;28;20434;-65
2022/05/07 10:09:23;;;;;;;5.50;4.90;;;23.10;94.50;;;;;;5085523;28;20451;-65
2022/05/07 10:11:54;;;;;;;8.37;5.30;;;22.80;93.70;;;;;;5086749;28;20504;-66
2022/05/07 10:14:26;;;;;;;5.10;4.60;;;22.50;94.10;;;;;;5088772;28;20481;-66
2022/05/07 10:16:59;;;;;;;7.50;5.60;;;22.10;91.40;;;;;;5087200;28;20446;-66
2022/05/07 10:19:38;;;;;;;7.40;6.70;;;22.30;93.10;;;;;;5089017;28;20429;-66
2022/05/07 10:22:21;;;;;;;8.03;5.93;;;22.30;94.50;;;;;;5088295;28;20462;-65
2022/05/07 10:24:49;;;;;;;6.83;5.20;;;23.20;95.20;;;;;;5086674;28;20862;-66
2022/05/07 10:27:26;;;;;;;6.40;4.53;;;23.80;90.50;;;;;;5090924;28;20849;-66
2022/05/07 10:30:02;;;;;;;7.47;4.80;;;23.60;89.30;;;;;;5070807;28;20439;-66
2022/05/07 10:32:31;;;;;;;4.43;3.83;;;23.30;90.50;;;;;;5070957;28;20481;-65
2022/05/07 10:34:57;;;;;;;6.30;4.20;;;22.60;90.40;;;;;;5071297;28;21104;-64
2022/05/07 10:37:24;;;;;;;6.60;4.00;;;22.30;90.10;;;;;;5071157;28;20435;-65
2022/05/07 10:39:53;;;;;;;7.50;4.53;;;22.40;90.30;;;;;;5070495;28;20961;-65
2022/05/07 10:42:21;;;;;;;4.97;4.10;;;22.50;89.60;;;;;;5070710;28;20475;-65
2022/05/07 10:44:49;;;;;;;5.47;4.40;;;22.90;90.70;;;;;;5071323;28;21030;-65
2022/05/07 10:47:19;;;;;;;4.37;3.50;;;23.30;90.20;;;;;;5070756;28;20443;-64
2022/05/07 10:50:07;;;;;;;4.50;4.00;;;23.30;88.80;;;;;;5082662;28;20453;-65
2022/05/07 10:52:35;;;;;;;3.87;3.33;;;23.50;86.60;;;;;;5078620;28;20552;-65
2022/05/07 10:55:11;;;;;;;4.93;4.03;;;23.20;84.70;;;;;;5078082;28;20569;-66
2022/05/07 10:57:42;;;;;;;4.03;3.53;;;23.60;83.90;;;;;;5078555;28;20446;-66
2022/05/07 11:00:14;;;;;;;6.53;3.80;;;23.80;85.00;;;;;;5080976;28;20438;-65
2022/05/07 11:02:41;;;;;;;4.03;3.63;;;24.20;81.40;;;;;;5080780;28;20469;-66
2022/05/07 11:05:11;;;;;;;5.97;3.90;;;24.10;81.20;;;;;;5079473;28;20438;-64
2022/05/07 11:07:38;;;;;;;5.87;4.27;;;24.10;80.00;;;;;;5079230;28;20986;-66
2022/05/07 11:10:06;;;;;;;5.00;4.47;;;23.90;80.40;;;;;;5077905;28;20438;-65
2022/05/07 11:12:35;;;;;;;8.63;3.87;;;23.90;83.40;;;;;;5085450;28;20466;-65
2022/05/07 11:15:03;;;;;;;5.77;3.43;;;24.00;86.50;;;;;;5083827;28;20475;-65
2022/05/07 11:17:31;;;;;;;4.27;3.60;;;24.70;81.90;;;;;;5081732;28;20850;-65
2022/05/07 11:19:58;;;;;;;7.20;3.97;;;25.60;78.80;;;;;;5077881;28;20444;-65
2022/05/07 11:22:29;;;;;;;5.13;3.83;;;24.60;76.40;;;;;;5080089;28;20466;-66
2022/05/07 11:24:57;;;;;;;4.00;3.50;;;24.90;77.80;;;;;;5080776;28;21001;-65
2022/05/07 11:27:29;;;;;;;6.43;3.63;;;25.70;76.40;;;;;;5079578;28;20450;-65
2022/05/07 11:29:56;;;;;;;5.43;3.30;;;25.60;79.30;;;;;;5079093;28;20442;-64
2022/05/07 11:32:24;;;;;;;4.57;3.60;;;26.50;72.80;;;;;;5085504;28;20477;-64
2022/05/07 11:34:57;;;;;;;7.57;4.07;;;26.50;75.10;;;;;;5089709;28;20527;-65
2022/05/07 11:37:25;;;;;;;5.97;5.33;;;27.10;73.00;;;;;;5087110;28;20439;-65
2022/05/07 11:39:54;;;;;;;7.60;4.23;;;26.80;73.70;;;;;;5089550;28;20937;-64
2022/05/07 11:42:33;;;;;;;4.80;4.30;;;26.10;71.90;;;;;;5089486;28;20480;-64
2022/05/07 11:47:52;;;;;;;4.53;3.80;;;26.60;68.20;;;;;;5089864;28;20933;-64
2022/05/07 11:50:21;;;;;;;4.30;3.87;;;27.20;72.50;;;;;;5089710;28;20960;-64
2022/05/07 11:52:50;;;;;;;6.87;5.97;;;27.30;65.00;;;;;;5089777;28;20515;-64
2022/05/07 11:55:18;;;;;;;5.40;4.40;;;26.10;70.00;;;;;;5089815;28;20470;-64
2022/05/07 11:57:46;;;;;;;5.80;4.33;;;25.20;70.50;;;;;;5090183;28;20453;-66
2022/05/07 12:00:15;;;;;;;5.53;4.13;;;24.80;76.80;;;;;;5088810;28;20434;-64
2022/05/07 12:02:50;;;;;;;6.07;4.17;;;25.20;71.50;;;;;;5089801;28;21004;-65
2022/05/07 12:05:17;;;;;;;6.73;4.30;;;25.10;71.60;;;;;;5089653;28;20433;-66
2022/05/07 12:07:47;;;;;;;5.17;4.33;;;24.80;72.40;;;;;;5087235;28;21887;-65
2022/05/07 12:10:16;;;;;;;9.00;4.77;;;25.00;70.30;;;;;;5087198;28;20925;-66
2022/05/07 12:12:43;;;;;;;5.40;3.87;;;25.20;76.30;;;;;;5084108;28;20465;-64
2022/05/07 12:15:11;;;;;;;5.77;3.70;;;25.90;75.80;;;;;;5081552;28;20470;-64
2022/05/07 12:17:52;;;;;;;3.47;3.17;;;25.80;68.30;;;;;;5089624;28;20952;-64
2022/05/07 12:20:20;;;;;;;3.93;2.93;;;25.40;64.90;;;;;;5089022;28;20526;-64
2022/05/07 12:31:02;;;;;;;4.60;2.80;;;27.00;70.40;;;;;;5088882;28;20437;-64
2022/05/07 12:33:29;;;;;;;2.60;2.00;;;27.80;68.00;;;;;;5088810;28;20473;-64
2022/05/07 12:35:56;;;;;;;3.70;2.53;;;28.50;63.30;;;;;;5089480;28;20484;-64
2022/05/07 12:38:22;;;;;;;5.03;2.67;;;27.90;57.30;;;;;;5087891;28;20922;-63
2022/05/07 12:40:51;;;;;;;6.10;3.30;;;26.80;59.90;;;;;;5088311;28;20458;-67
2022/05/07 12:43:17;;;;;;;5.07;3.13;;;25.50;62.50;;;;;;5088188;28;20442;-64
2022/05/07 12:45:45;;;;;;;3.43;2.70;;;24.70;64.70;;;;;;5089165;28;20782;-63
2022/05/07 12:48:12;;;;;;;4.40;2.90;;;24.30;66.70;;;;;;5088920;28;20454;-64
2022/05/07 12:50:39;;;;;;;4.00;2.87;;;23.80;68.80;;;;;;5082563;28;20454;-64
2022/05/07 12:53:06;;;;;;;5.70;4.30;;;23.70;69.50;;;;;;5088016;28;20957;-64
2022/05/07 12:55:33;;;;;;;4.90;3.00;;;24.30;67.90;;;;;;5088175;28;20493;-64
2022/05/07 12:58:03;;;;;;;3.27;2.57;;;24.70;64.90;;;;;;5088514;28;20450;-63
2022/05/07 13:00:30;;;;;;;3.37;2.40;;;25.10;66.20;;;;;;5087909;28;20495;-64
2022/05/07 13:03:00;;;;;;;4.43;2.50;;;25.30;62.80;;;;;;5088573;28;20441;-65
2022/05/07 13:05:27;;;;;;;6.43;2.73;;;25.00;65.00;;;;;;5070783;28;20458;-64
2022/05/07 13:07:54;;;;;;;5.23;3.47;;;24.90;65.40;;;;;;5084232;28;20511;-65
2022/05/07 13:10:20;;;;;;;3.40;2.73;;;24.90;65.60;;;;;;5085135;28;20973;-65
2022/05/07 13:12:47;;;;;;;2.77;2.47;;;25.50;70.90;;;;;;5088066;28;20458;-65
2022/05/07 13:15:16;;;;;;;5.23;3.10;;;26.20;59.20;;;;;;5088497;28;20502;-64
2022/05/07 13:17:42;;;;;;;3.43;2.30;;;26.60;61.50;;;;;;5088816;28;20499;-64